Time;durP1;ratioP1;P1;durP2;ratioP2;P2;SDS_P1;SDS_P2;PMS_P1;PMS_P2;Temp;Humidity;BMP_temperature;BMP_pressure;BME280_temperature;BME280_humidity;BME280_pressure;Samples;Min_cycle;Max_cycle;Signal;HPM_P1;HPM_P2
2023/01/24 00:00:05;;;;;;;33.45;15.35;;;1.10;99.90;;;;;;5079766;28;20024;-41
2023/01/24 00:02:31;;;;;;;35.90;15.47;;;1.10;99.90;;;;;;5080626;28;20032;-37
2023/01/24 00:04:56;;;;;;;35.00;15.45;;;1.10;99.90;;;;;;5082551;28;20401;-41
2023/01/24 00:07:22;;;;;;;35.92;16.13;;;1.10;99.90;;;;;;5088484;28;20035;-39
2023/01/24 00:09:48;;;;;;;33.00;15.20;;;1.10;99.90;;;;;;5082731;28;20130;-40
2023/01/24 00:12:13;;;;;;;35.25;16.33;;;1.10;99.90;;;;;;5080220;28;20134;-40
2023/01/24 00:14:39;;;;;;;31.58;14.32;;;1.10;99.90;;;;;;5081312;28;20277;-41
2023/01/24 00:17:04;;;;;;;28.73;14.20;;;1.10;99.90;;;;;;5078730;28;20035;-41
2023/01/24 00:19:30;;;;;;;35.25;15.98;;;1.10;99.90;;;;;;5080585;28;20101;-41
2023/01/24 00:21:56;;;;;;;33.15;14.75;;;1.10;99.90;;;;;;5081186;28;20024;-38
2023/01/24 00:24:21;;;;;;;31.08;13.98;;;1.10;99.90;;;;;;5079364;28;21258;-39
2023/01/24 00:26:47;;;;;;;35.22;15.20;;;1.10;99.90;;;;;;5087971;28;20032;-36
2023/01/24 00:29:12;;;;;;;36.13;15.40;;;1.10;99.90;;;;;;5082728;28;20024;-40
2023/01/24 00:31:38;;;;;;;31.85;14.93;;;1.00;99.90;;;;;;5078789;28;20119;-38
2023/01/24 00:34:06;;;;;;;34.72;16.08;;;1.10;99.90;;;;;;5080071;28;20058;-37
2023/01/24 00:36:32;;;;;;;;;;;1.10;99.90;;;;;;5081144;28;20438;-40
2023/01/24 00:38:58;;;;;;;29.10;14.77;;;1.10;99.90;;;;;;5079656;28;20369;-38
2023/01/24 00:41:23;;;;;;;34.75;15.60;;;1.10;99.90;;;;;;5081503;28;20034;-42
2023/01/24 00:43:49;;;;;;;40.10;15.27;;;1.10;99.90;;;;;;5082372;28;20016;-41
2023/01/24 00:46:15;;;;;;;31.92;13.73;;;1.10;99.90;;;;;;5078611;28;20084;-42
2023/01/24 00:48:40;;;;;;;26.20;12.32;;;1.10;99.90;;;;;;5082208;28;20546;-41
2023/01/24 00:51:06;;;;;;;37.60;15.18;;;1.10;99.90;;;;;;5077688;28;20043;-39
2023/01/24 00:53:32;;;;;;;33.60;13.88;;;1.10;99.90;;;;;;5077312;28;20036;-42
2023/01/24 00:55:58;;;;;;;31.23;13.80;;;1.10;99.90;;;;;;5080092;28;20074;-40
2023/01/24 00:58:24;;;;;;;36.45;15.73;;;1.10;99.90;;;;;;5078520;28;20477;-40
2023/01/24 01:00:50;;;;;;;28.38;13.48;;;1.10;99.90;;;;;;5078294;28;20028;-39
2023/01/24 01:03:18;;;;;;;26.80;13.35;;;1.10;99.90;;;;;;5079300;28;20028;-41
2023/01/24 01:05:43;;;;;;;32.17;14.82;;;1.10;99.90;;;;;;5080174;28;20115;-40
2023/01/24 01:08:10;;;;;;;27.60;11.57;;;1.10;99.90;;;;;;5057747;28;20616;-42
2023/01/24 01:10:36;;;;;;;34.05;13.75;;;1.10;99.90;;;;;;5079494;28;20039;-41
2023/01/24 01:13:02;;;;;;;32.20;14.48;;;1.10;99.90;;;;;;5064853;28;20055;-39
2023/01/24 01:15:29;;;;;;;28.70;13.15;;;1.10;99.90;;;;;;5080271;28;20441;-40
2023/01/24 01:17:56;;;;;;;30.52;13.55;;;1.10;99.90;;;;;;5082251;28;20141;-40
2023/01/24 01:20:21;;;;;;;32.97;14.38;;;1.10;99.90;;;;;;5082134;28;20477;-38
2023/01/24 01:22:47;;;;;;;36.67;14.77;;;1.10;99.90;;;;;;5078934;28;20034;-38
2023/01/24 01:25:12;;;;;;;35.80;17.35;;;1.10;99.90;;;;;;5075920;28;20051;-39
2023/01/24 01:27:38;;;;;;;27.83;12.70;;;1.10;99.90;;;;;;5080513;28;20026;-38
2023/01/24 01:30:04;;;;;;;33.05;13.10;;;1.00;99.90;;;;;;5080269;28;20047;-41
2023/01/24 01:32:30;;;;;;;31.42;14.02;;;1.10;99.90;;;;;;5076180;28;20592;-41
2023/01/24 01:34:56;;;;;;;30.85;14.35;;;1.00;99.90;;;;;;5079484;28;20119;-35
2023/01/24 01:37:21;;;;;;;36.63;14.93;;;1.00;99.90;;;;;;5074452;28;20032;-37
2023/01/24 01:39:47;;;;;;;29.65;13.73;;;1.10;99.90;;;;;;5075056;28;20055;-40
2023/01/24 01:42:14;;;;;;;33.25;15.02;;;1.10;99.90;;;;;;5076481;28;20020;-41
2023/01/24 01:44:49;;;;;;;29.83;12.98;;;1.00;99.90;;;;;;5082934;28;20080;-41
2023/01/24 01:47:35;;;;;;;33.03;14.02;;;1.00;99.90;;;;;;5078336;28;20036;-35
2023/01/24 01:50:29;;;;;;;33.15;14.27;;;1.10;99.90;;;;;;5079254;28;20024;-41
2023/01/24 01:52:56;;;;;;;30.33;13.48;;;1.10;99.90;;;;;;5081886;28;20458;-41
2023/01/24 01:55:25;;;;;;;25.55;13.05;;;1.10;99.90;;;;;;5059947;28;20040;-41
2023/01/24 01:57:52;;;;;;;33.30;12.95;;;1.10;99.90;;;;;;5078684;28;20024;-40
2023/01/24 02:00:21;;;;;;;31.55;12.85;;;1.10;99.90;;;;;;5080382;28;20115;-39
2023/01/24 02:02:50;;;;;;;;;;;1.10;99.90;;;;;;5080569;28;20028;-42
2023/01/24 02:05:20;;;;;;;28.38;12.02;;;1.10;99.90;;;;;;5075028;28;20369;-36
2023/01/24 02:07:55;;;;;;;27.35;12.73;;;1.10;99.90;;;;;;5073550;28;20052;-36
2023/01/24 02:10:24;;;;;;;24.35;10.75;;;1.10;99.90;;;;;;5080490;28;20456;-41
2023/01/24 02:12:53;;;;;;;24.98;11.43;;;1.10;99.90;;;;;;5042741;28;20409;-35
2023/01/24 02:18:08;;;;;;;28.55;12.95;;;1.10;99.90;;;;;;5075912;28;20070;-41
2023/01/24 02:20:38;;;;;;;32.00;13.98;;;1.10;99.90;;;;;;5079901;28;20019;-41
2023/01/24 02:23:07;;;;;;;32.22;13.98;;;1.10;99.90;;;;;;5080158;28;20532;-41
2023/01/24 02:25:47;;;;;;;30.67;13.95;;;1.10;99.90;;;;;;5083144;28;20035;-42
2023/01/24 02:28:13;;;;;;;28.58;13.38;;;1.10;99.90;;;;;;5085267;28;20510;-41
2023/01/24 02:30:39;;;;;;;30.20;13.40;;;1.10;99.90;;;;;;5059850;28;20024;-41
2023/01/24 02:33:18;;;;;;;29.92;13.55;;;1.10;99.90;;;;;;5075789;28;20039;-41
2023/01/24 02:35:44;;;;;;;25.38;12.13;;;1.00;99.90;;;;;;5074292;28;20504;-35
2023/01/24 02:38:14;;;;;;;34.70;13.70;;;1.10;99.90;;;;;;5075012;28;20060;-40
2023/01/24 02:40:40;;;;;;;31.70;14.48;;;1.10;99.90;;;;;;5080984;28;20124;-41
2023/01/24 02:43:07;;;;;;;27.10;12.98;;;1.10;99.90;;;;;;5077870;28;20077;-34
2023/01/24 02:45:34;;;;;;;34.88;14.43;;;1.10;99.90;;;;;;5057495;28;20249;-41
2023/01/24 02:48:00;;;;;;;34.55;13.55;;;1.00;99.90;;;;;;5075063;28;20052;-40
2023/01/24 02:50:29;;;;;;;35.33;15.20;;;1.10;99.90;;;;;;5077855;28;20460;-37
2023/01/24 02:58:24;;;;;;;28.65;12.45;;;1.00;99.90;;;;;;5081283;28;20157;-39
2023/01/24 03:00:49;;;;;;;30.02;15.10;;;1.00;99.90;;;;;;5074362;28;20417;-41
2023/01/24 03:03:15;;;;;;;29.75;13.85;;;1.10;99.90;;;;;;5078790;28;20028;-40
2023/01/24 03:05:56;;;;;;;37.15;14.93;;;1.00;99.90;;;;;;5079821;28;20131;-40
2023/01/24 03:08:23;;;;;;;36.47;14.68;;;1.10;99.90;;;;;;5083697;28;20105;-41
2023/01/24 03:10:49;;;;;;;36.80;15.23;;;1.10;99.90;;;;;;5078423;28;20080;-37
2023/01/24 03:35:09;;;;;;;37.97;14.52;;;1.10;99.90;;;;;;5082632;28;20119;-42
2023/01/24 03:40:19;;;;;;;34.55;15.90;;;1.10;99.90;;;;;;5076050;28;20035;-40
2023/01/24 03:42:50;;;;;;;29.70;13.48;;;1.10;99.90;;;;;;5081297;28;20389;-41
2023/01/24 03:45:18;;;;;;;32.95;13.20;;;1.10;99.90;;;;;;5079474;28;20082;-39
2023/01/24 03:47:55;;;;;;;31.13;14.45;;;1.10;99.90;;;;;;5085133;28;20473;-39
2023/01/24 03:53:21;;;;;;;38.08;15.23;;;1.10;99.90;;;;;;5082089;28;20031;-40
2023/01/24 03:55:55;;;;;;;37.58;16.08;;;1.20;99.90;;;;;;5082063;28;20044;-35
2023/01/24 03:58:21;;;;;;;31.58;13.75;;;1.20;99.90;;;;;;5060004;28;20119;-38
2023/01/24 04:00:46;;;;;;;28.77;13.55;;;1.20;99.90;;;;;;5078584;28;20032;-36
2023/01/24 04:03:12;;;;;;;36.25;14.30;;;1.10;99.90;;;;;;5085585;28;20035;-39
2023/01/24 04:05:38;;;;;;;36.13;16.33;;;1.10;99.90;;;;;;5080148;28;20088;-39
2023/01/24 04:08:03;;;;;;;35.58;15.63;;;1.20;99.90;;;;;;5078292;28;20048;-35
2023/01/24 04:10:30;;;;;;;33.33;13.68;;;1.20;99.90;;;;;;5068006;28;20028;-37
2023/01/24 04:12:56;;;;;;;30.35;14.40;;;1.20;99.90;;;;;;5079760;28;20024;-41
2023/01/24 04:15:28;;;;;;;26.25;11.98;;;1.10;99.90;;;;;;5070783;28;20504;-41
2023/01/24 04:17:58;;;;;;;30.02;13.63;;;1.20;99.90;;;;;;5085967;28;20389;-41
2023/01/24 04:20:26;;;;;;;29.38;12.70;;;1.10;99.90;;;;;;5079116;28;20396;-41
2023/01/24 04:22:52;;;;;;;30.80;13.95;;;1.10;99.90;;;;;;5078024;28;20028;-40
2023/01/24 04:25:18;;;;;;;30.48;12.60;;;1.20;99.90;;;;;;5080369;28;20051;-38
2023/01/24 04:27:44;;;;;;;27.63;13.57;;;1.20;99.90;;;;;;5073690;28;20040;-42
2023/01/24 04:30:12;;;;;;;31.92;13.20;;;1.20;99.90;;;;;;5080526;28;20031;-42
2023/01/24 04:32:38;;;;;;;32.83;15.20;;;1.20;99.90;;;;;;5078741;28;20036;-41
2023/01/24 04:35:04;;;;;;;36.03;14.15;;;1.10;99.90;;;;;;5074662;28;20740;-35
2023/01/24 04:37:31;;;;;;;31.92;13.68;;;1.20;99.90;;;;;;5081904;28;20040;-40
2023/01/24 04:39:57;;;;;;;27.85;12.50;;;1.10;99.90;;;;;;5077478;28;20028;-37
2023/01/24 04:42:22;;;;;;;37.28;14.68;;;1.10;99.90;;;;;;5089545;28;20073;-38
2023/01/24 04:44:48;;;;;;;30.42;13.88;;;1.20;99.90;;;;;;5074294;28;20059;-39
2023/01/24 04:47:14;;;;;;;31.58;13.32;;;1.20;99.90;;;;;;5073963;28;20049;-36
2023/01/24 04:49:41;;;;;;;29.80;13.40;;;1.20;99.90;;;;;;5083636;28;20085;-36
2023/01/24 04:52:11;;;;;;;30.33;13.05;;;1.20;99.90;;;;;;5079332;28;20425;-38
2023/01/24 04:54:38;;;;;;;30.35;13.65;;;1.20;99.90;;;;;;5080943;28;20032;-37
2023/01/24 04:57:03;;;;;;;30.08;12.40;;;1.20;99.90;;;;;;5078395;28;20108;-41
2023/01/24 04:59:29;;;;;;;30.05;11.95;;;1.20;99.90;;;;;;5079259;28;20626;-42
2023/01/24 05:01:55;;;;;;;28.77;13.18;;;1.20;99.90;;;;;;5082806;28;20033;-41
2023/01/24 05:04:20;;;;;;;23.15;11.02;;;1.20;99.90;;;;;;5078142;28;20036;-37
2023/01/24 05:06:46;;;;;;;22.25;11.30;;;1.10;99.90;;;;;;5078446;28;20623;-39
2023/01/24 05:09:11;;;;;;;30.02;12.15;;;1.20;99.90;;;;;;5079082;28;20141;-39
2023/01/24 05:11:37;;;;;;;30.55;13.07;;;1.10;99.90;;;;;;5078395;28;20063;-39
2023/01/24 05:14:03;;;;;;;26.58;11.27;;;1.20;99.90;;;;;;5079094;28;20032;-36
2023/01/24 05:16:29;;;;;;;25.33;11.85;;;1.20;99.90;;;;;;5056609;28;20031;-41
2023/01/24 05:18:54;;;;;;;25.00;12.10;;;1.10;99.90;;;;;;5083359;28;20033;-42
2023/01/24 05:21:20;;;;;;;26.50;11.63;;;1.20;99.90;;;;;;5078508;28;20120;-41
2023/01/24 05:23:51;;;;;;;24.25;11.05;;;1.10;99.90;;;;;;5080306;28;20054;-38
2023/01/24 05:26:18;;;;;;;25.45;11.55;;;1.10;99.90;;;;;;5082101;28;20094;-41
2023/01/24 05:28:43;;;;;;;20.65;10.80;;;1.10;99.90;;;;;;5085100;28;20038;-40
2023/01/24 05:31:09;;;;;;;28.13;11.98;;;1.10;99.90;;;;;;5080320;28;20040;-42
2023/01/24 05:33:35;;;;;;;25.85;11.18;;;1.10;99.90;;;;;;5078655;28;20032;-38
2023/01/24 05:36:06;;;;;;;25.35;10.60;;;1.10;99.90;;;;;;5080616;28;20060;-41
2023/01/24 05:38:33;;;;;;;26.13;11.90;;;1.10;99.90;;;;;;5079701;28;20017;-42
2023/01/24 05:41:00;;;;;;;26.95;11.85;;;1.10;99.90;;;;;;5075477;28;20495;-40
2023/01/24 05:43:26;;;;;;;23.02;10.88;;;1.10;99.90;;;;;;5078300;28;20095;-40
2023/01/24 05:45:55;;;;;;;23.42;12.23;;;1.10;99.90;;;;;;5078325;28;20111;-39
2023/01/24 05:48:21;;;;;;;21.50;11.63;;;1.10;99.90;;;;;;5084460;28;20392;-41
2023/01/24 05:50:46;;;;;;;24.38;12.13;;;1.10;99.90;;;;;;5081579;28;20039;-40
2023/01/24 05:53:12;;;;;;;31.25;13.57;;;1.10;99.90;;;;;;5080708;28;20035;-38
2023/01/24 05:55:38;;;;;;;22.25;10.60;;;1.10;99.90;;;;;;5076084;28;20090;-37
2023/01/24 05:58:03;;;;;;;23.75;10.55;;;1.10;99.90;;;;;;5054441;28;22194;-40
2023/01/24 06:00:29;;;;;;;27.65;12.48;;;1.10;99.90;;;;;;5076267;28;20020;-41
2023/01/24 06:03:00;;;;;;;32.17;12.48;;;1.10;99.90;;;;;;5080334;28;20020;-35
2023/01/24 06:05:25;;;;;;;23.33;11.20;;;1.10;99.90;;;;;;5074931;28;20066;-39
2023/01/24 06:07:51;;;;;;;23.33;12.95;;;1.10;99.90;;;;;;5061585;28;20735;-38
2023/01/24 06:10:16;;;;;;;26.42;12.35;;;1.10;99.90;;;;;;5077389;28;20039;-37
2023/01/24 06:12:42;;;;;;;25.92;12.73;;;1.10;99.90;;;;;;5075736;28;20032;-34
2023/01/24 06:15:08;;;;;;;29.90;12.98;;;1.10;99.90;;;;;;5080534;28;20379;-39
2023/01/24 06:17:33;;;;;;;20.88;11.00;;;1.10;99.90;;;;;;5074888;28;20092;-38
2023/01/24 06:19:59;;;;;;;23.77;12.00;;;1.20;99.90;;;;;;5062700;28;20028;-35
2023/01/24 06:22:32;;;;;;;25.85;11.50;;;1.10;99.90;;;;;;5077697;28;20069;-40
2023/01/24 06:24:58;;;;;;;22.15;10.50;;;1.20;99.90;;;;;;5076519;28;20032;-37
2023/01/24 06:27:24;;;;;;;23.27;11.73;;;1.20;99.90;;;;;;5077310;28;20035;-41
2023/01/24 06:29:50;;;;;;;24.77;10.90;;;1.20;99.90;;;;;;5081132;28;20427;-35
2023/01/24 06:33:02;;;;;;;24.35;12.40;;;1.20;99.90;;;;;;5073797;28;20035;-40
2023/01/24 06:35:49;;;;;;;21.30;10.80;;;1.20;99.90;;;;;;5067539;28;20070;-36
2023/01/24 06:38:18;;;;;;;22.73;11.05;;;1.20;99.90;;;;;;5077442;28;20386;-37
2023/01/24 06:40:44;;;;;;;19.05;9.38;;;1.20;99.90;;;;;;5076720;28;20032;-41
2023/01/24 06:43:10;;;;;;;23.08;11.55;;;1.20;99.90;;;;;;5079468;28;20032;-40
2023/01/24 06:45:35;;;;;;;19.65;9.48;;;1.20;99.90;;;;;;5081024;28;20508;-39
2023/01/24 06:48:01;;;;;;;21.08;8.95;;;1.20;99.90;;;;;;5076509;28;20496;-41
2023/01/24 06:50:31;;;;;;;17.15;8.90;;;1.20;99.90;;;;;;5061518;28;20033;-42
2023/01/24 06:52:57;;;;;;;23.73;12.23;;;1.20;99.90;;;;;;5080621;28;20032;-38
2023/01/24 06:55:23;;;;;;;17.77;8.57;;;1.30;99.90;;;;;;5078774;28;20047;-41
2023/01/24 06:58:00;;;;;;;19.92;10.73;;;1.20;99.90;;;;;;5077451;28;20021;-40
2023/01/24 07:00:28;;;;;;;17.95;9.25;;;1.20;99.90;;;;;;5079266;28;20055;-38
2023/01/24 07:02:58;;;;;;;20.50;9.32;;;1.30;99.90;;;;;;5078438;28;20077;-41
2023/01/24 07:05:25;;;;;;;21.80;9.77;;;1.20;99.90;;;;;;5078649;28;20021;-40
2023/01/24 07:07:50;;;;;;;20.08;10.55;;;1.20;99.90;;;;;;5085902;28;20044;-37
2023/01/24 07:10:16;;;;;;;22.95;10.30;;;1.20;99.90;;;;;;5082271;28;20066;-39
2023/01/24 07:12:42;;;;;;;21.38;10.10;;;1.20;99.90;;;;;;5084177;28;20489;-40
2023/01/24 07:15:08;;;;;;;20.88;12.00;;;1.20;99.90;;;;;;5063298;28;20020;-42
2023/01/24 07:17:34;;;;;;;19.55;10.25;;;1.30;99.90;;;;;;5085681;28;20032;-41
2023/01/24 07:20:00;;;;;;;17.92;8.55;;;1.20;99.90;;;;;;5081634;28;20146;-38
2023/01/24 07:22:27;;;;;;;22.25;12.35;;;1.20;99.90;;;;;;5081075;28;20082;-41
2023/01/24 07:24:53;;;;;;;18.48;8.75;;;1.30;99.90;;;;;;5081111;28;20473;-41
2023/01/24 07:27:19;;;;;;;22.05;11.07;;;1.20;99.90;;;;;;5083447;28;20129;-39
2023/01/24 07:29:45;;;;;;;24.10;11.95;;;1.20;99.90;;;;;;5081604;28;20059;-37
2023/01/24 07:32:11;;;;;;;19.17;10.93;;;1.20;99.90;;;;;;5086137;28;20357;-38
2023/01/24 07:34:37;;;;;;;18.63;10.10;;;1.20;99.90;;;;;;5078148;28;20033;-40
2023/01/24 07:37:06;;;;;;;18.50;9.48;;;1.20;99.90;;;;;;5064785;28;20043;-39
2023/01/24 07:39:31;;;;;;;17.40;8.45;;;1.20;99.90;;;;;;5081073;28;20485;-36
2023/01/24 07:41:57;;;;;;;17.27;9.52;;;1.30;99.90;;;;;;5084739;28;20120;-40
2023/01/24 07:44:23;;;;;;;22.33;10.23;;;1.20;99.90;;;;;;5081481;28;20020;-41
2023/01/24 07:46:48;;;;;;;17.90;9.45;;;1.20;99.90;;;;;;5065822;28;20032;-40
2023/01/24 07:49:14;;;;;;;19.75;10.80;;;1.20;99.90;;;;;;5088884;28;20073;-36
2023/01/24 07:51:40;;;;;;;17.63;9.30;;;1.20;99.90;;;;;;5080051;28;20111;-42
2023/01/24 07:54:06;;;;;;;20.98;11.02;;;1.20;99.90;;;;;;5082988;28;20054;-41
2023/01/24 07:56:31;;;;;;;19.08;10.27;;;1.20;99.90;;;;;;5084343;28;20469;-41
2023/01/24 07:58:58;;;;;;;21.90;11.10;;;1.20;99.90;;;;;;5081796;28;20021;-39
2023/01/24 08:01:25;;;;;;;19.15;10.27;;;1.20;99.90;;;;;;5064010;28;20020;-41
2023/01/24 08:03:54;;;;;;;19.33;10.45;;;1.20;99.90;;;;;;5082493;28;20024;-41
2023/01/24 08:06:19;;;;;;;19.40;9.68;;;1.20;99.90;;;;;;5083736;28;20028;-40
2023/01/24 08:08:45;;;;;;;18.33;10.18;;;1.20;99.90;;;;;;5068793;28;20056;-38
2023/01/24 08:11:13;;;;;;;23.35;11.18;;;1.20;99.90;;;;;;5081254;28;20520;-42
2023/01/24 08:13:38;;;;;;;22.38;10.18;;;1.20;99.90;;;;;;5079940;28;20416;-39
2023/01/24 08:16:05;;;;;;;19.70;9.50;;;1.20;99.90;;;;;;5082806;28;20036;-41
2023/01/24 08:18:30;;;;;;;14.85;8.52;;;1.20;99.90;;;;;;5090706;28;20415;-39
2023/01/24 08:20:56;;;;;;;20.90;9.77;;;1.20;99.90;;;;;;5082806;28;20016;-41
2023/01/24 08:23:22;;;;;;;20.17;10.57;;;1.20;99.90;;;;;;5091020;28;20128;-41
2023/01/24 08:25:48;;;;;;;14.63;8.40;;;1.20;99.90;;;;;;5090888;28;20469;-39
2023/01/24 08:28:13;;;;;;;19.05;9.15;;;1.20;99.90;;;;;;5096007;28;20028;-35
2023/01/24 08:30:39;;;;;;;18.10;10.88;;;1.20;99.90;;;;;;5083676;28;20485;-40
2023/01/24 08:33:06;;;;;;;23.42;10.90;;;1.20;99.90;;;;;;5081545;28;20067;-36
2023/01/24 08:35:32;;;;;;;24.20;10.98;;;1.30;99.90;;;;;;5082552;28;20032;-40
2023/01/24 08:37:58;;;;;;;20.77;10.90;;;1.20;99.90;;;;;;5076886;28;20051;-39
2023/01/24 08:40:24;;;;;;;25.33;12.07;;;1.20;99.90;;;;;;5063510;28;20020;-39
2023/01/24 08:42:51;;;;;;;21.13;10.98;;;1.20;99.90;;;;;;5084729;28;20032;-41
2023/01/24 08:45:16;;;;;;;23.73;10.70;;;1.30;99.90;;;;;;5061490;28;20114;-40
2023/01/24 08:47:42;;;;;;;17.95;9.27;;;1.30;99.90;;;;;;5077328;28;20099;-40
2023/01/24 08:50:08;;;;;;;18.63;9.90;;;1.30;99.90;;;;;;5086858;28;20773;-39
2023/01/24 08:52:34;;;;;;;18.55;9.10;;;1.30;99.90;;;;;;5086871;28;20020;-41
2023/01/24 08:55:00;;;;;;;19.92;9.70;;;1.30;99.90;;;;;;5085653;28;20012;-39
2023/01/24 08:57:25;;;;;;;16.33;9.07;;;1.30;99.90;;;;;;5078569;28;20028;-41
2023/01/24 08:59:51;;;;;;;16.05;8.68;;;1.30;99.90;;;;;;5084391;28;20519;-39
2023/01/24 09:02:17;;;;;;;18.20;9.60;;;1.30;99.90;;;;;;5091198;28;20032;-40
2023/01/24 09:04:43;;;;;;;17.38;9.15;;;1.30;99.90;;;;;;5080404;28;20350;-41
2023/01/24 09:07:11;;;;;;;18.63;9.30;;;1.30;99.90;;;;;;5076375;28;20471;-38
2023/01/24 09:09:36;;;;;;;19.70;9.93;;;1.30;99.90;;;;;;5066651;28;20439;-41
2023/01/24 09:12:02;;;;;;;18.90;9.60;;;1.30;99.90;;;;;;5061684;28;20033;-39
2023/01/24 09:14:27;;;;;;;17.25;10.50;;;1.30;99.90;;;;;;5061183;28;20036;-36
2023/01/24 09:16:54;;;;;;;17.50;9.88;;;1.30;99.90;;;;;;5053730;28;20091;-41
2023/01/24 09:19:19;;;;;;;18.48;9.70;;;1.30;99.90;;;;;;5056329;28;20035;-39
2023/01/24 09:21:48;;;;;;;19.65;8.93;;;1.30;99.90;;;;;;5062377;28;20024;-37
2023/01/24 09:24:14;;;;;;;;;;;1.40;99.90;;;;;;5063783;28;20025;-38
2023/01/24 09:26:40;;;;;;;17.00;9.82;;;1.40;99.90;;;;;;5062381;28;19912;-37
2023/01/24 09:29:06;;;;;;;21.70;10.40;;;1.40;99.90;;;;;;5056328;28;20075;-40
2023/01/24 09:31:31;;;;;;;17.48;8.80;;;1.40;99.90;;;;;;5059209;28;20448;-42
2023/01/24 09:33:57;;;;;;;18.58;10.18;;;1.40;99.90;;;;;;5063653;28;20490;-38
2023/01/24 09:36:23;;;;;;;18.08;8.60;;;1.40;99.90;;;;;;5059499;28;20029;-42
2023/01/24 09:38:49;;;;;;;19.65;9.15;;;1.50;99.90;;;;;;5057065;28;20024;-42
2023/01/24 09:41:46;;;;;;;18.40;9.27;;;1.50;99.90;;;;;;5054227;28;20098;-39
2023/01/24 09:44:42;;;;;;;19.40;9.57;;;1.50;99.90;;;;;;5058896;28;20036;-42
2023/01/24 09:47:34;;;;;;;19.83;9.43;;;1.50;99.90;;;;;;5062353;28;20040;-38
2023/01/24 09:50:03;;;;;;;17.92;10.20;;;1.50;99.90;;;;;;5057232;28;20045;-42
2023/01/24 09:52:35;;;;;;;21.58;10.30;;;1.50;99.90;;;;;;5058098;28;20079;-43
2023/01/24 09:55:25;;;;;;;16.70;9.75;;;1.50;99.90;;;;;;5062586;28;20127;-42
2023/01/24 09:57:56;;;;;;;17.30;9.63;;;1.50;99.90;;;;;;5057854;28;20541;-42
2023/01/24 10:00:26;;;;;;;19.70;9.85;;;1.50;99.90;;;;;;5060567;28;20032;-37
2023/01/24 10:02:55;;;;;;;20.60;10.57;;;1.60;99.90;;;;;;5059408;28;20108;-40
2023/01/24 10:05:23;;;;;;;;;;;1.60;99.90;;;;;;5064273;28;20024;-37
2023/01/24 10:08:04;;;;;;;19.05;9.40;;;1.60;99.90;;;;;;5060766;28;19920;-37
2023/01/24 10:10:44;;;;;;;14.18;7.78;;;1.60;99.90;;;;;;5075030;28;20125;-37
2023/01/24 10:13:45;;;;;;;20.27;9.90;;;1.60;99.90;;;;;;5077933;28;20060;-40
2023/01/24 10:16:29;;;;;;;22.65;9.95;;;1.70;99.90;;;;;;5073563;28;20117;-40
2023/01/24 10:19:10;;;;;;;17.92;8.93;;;1.70;99.90;;;;;;5076010;28;20446;-40
2023/01/24 10:22:08;;;;;;;16.83;8.93;;;1.70;99.90;;;;;;5078920;28;20024;-41
2023/01/24 10:24:36;;;;;;;;;;;1.70;99.90;;;;;;5076731;28;20020;-41
2023/01/24 10:27:20;;;;;;;21.27;10.50;;;1.70;99.90;;;;;;5079836;28;19916;-40
2023/01/24 10:29:54;;;;;;;19.10;8.85;;;1.70;99.90;;;;;;5081688;28;20209;-41
2023/01/24 10:32:30;;;;;;;24.42;11.63;;;1.70;99.90;;;;;;5079642;28;20083;-36
2023/01/24 10:35:15;;;;;;;20.92;10.50;;;1.70;99.90;;;;;;5082456;28;20032;-40
2023/01/24 10:37:45;;;;;;;19.75;10.73;;;1.70;99.90;;;;;;5078231;28;20151;-39
2023/01/24 10:40:15;;;;;;;17.63;9.13;;;1.70;99.90;;;;;;5076706;28;20423;-41
2023/01/24 10:42:41;;;;;;;17.55;9.20;;;1.70;99.90;;;;;;5059160;28;20024;-41
2023/01/24 10:45:30;;;;;;;22.17;10.90;;;1.70;99.90;;;;;;5083107;28;20419;-40
2023/01/24 10:48:19;;;;;;;18.70;10.40;;;1.70;99.90;;;;;;5080279;28;20024;-41
2023/01/24 10:50:45;;;;;;;17.60;8.60;;;1.80;99.90;;;;;;5030440;28;20056;-40
2023/01/24 10:53:24;;;;;;;20.90;11.02;;;1.80;99.90;;;;;;5081949;28;20389;-41
2023/01/24 10:55:56;;;;;;;20.33;10.00;;;1.70;99.90;;;;;;5076644;28;20076;-42
2023/01/24 10:58:36;;;;;;;22.25;9.70;;;1.80;99.90;;;;;;5087493;28;20028;-40
2023/01/24 11:01:17;;;;;;;17.92;9.18;;;1.80;99.90;;;;;;5077820;28;20089;-39
2023/01/24 11:03:43;;;;;;;18.08;10.05;;;1.80;99.90;;;;;;5078968;28;20024;-41
2023/01/24 11:06:33;;;;;;;20.92;8.95;;;1.80;99.90;;;;;;5074920;28;21801;-39
2023/01/24 11:09:20;;;;;;;18.08;8.95;;;1.80;99.90;;;;;;5075251;28;20049;-41
2023/01/24 11:11:51;;;;;;;17.45;9.98;;;1.90;99.90;;;;;;5073255;28;20032;-41
2023/01/24 11:14:31;;;;;;;19.30;10.10;;;1.90;99.90;;;;;;5074165;28;20040;-41
2023/01/24 11:16:59;;;;;;;17.45;9.02;;;1.90;99.90;;;;;;5074646;28;20032;-37
2023/01/24 11:19:29;;;;;;;19.52;10.10;;;1.90;99.90;;;;;;5079353;28;20268;-39
2023/01/24 11:22:03;;;;;;;21.60;11.43;;;1.90;99.90;;;;;;5075294;28;20043;-39
2023/01/24 11:24:29;;;;;;;19.58;10.18;;;1.90;99.90;;;;;;5060563;28;20119;-36
2023/01/24 11:27:03;;;;;;;20.60;9.68;;;1.90;99.90;;;;;;5067642;28;20523;-33
2023/01/24 11:29:29;;;;;;;20.08;9.60;;;1.90;99.90;;;;;;5070122;28;20032;-40
2023/01/24 11:32:15;;;;;;;25.42;10.43;;;1.90;99.90;;;;;;5084467;28;20677;-41
2023/01/24 11:34:55;;;;;;;26.38;11.68;;;1.90;99.90;;;;;;5079312;28;20036;-41
2023/01/24 11:37:32;;;;;;;22.30;9.80;;;2.00;99.90;;;;;;5061593;28;20036;-38
2023/01/24 11:39:57;;;;;;;23.50;11.95;;;2.00;99.90;;;;;;5045578;28;20052;-38
2023/01/24 11:42:53;;;;;;;25.33;11.57;;;2.00;99.90;;;;;;5061538;28;20032;-35
2023/01/24 11:45:50;;;;;;;23.80;10.85;;;1.90;99.90;;;;;;5059978;28;20058;-35
2023/01/24 11:48:20;;;;;;;23.17;11.00;;;2.00;99.90;;;;;;5060897;28;20130;-38
2023/01/24 11:51:05;;;;;;;23.83;10.20;;;2.00;99.90;;;;;;5058665;28;20631;-38
2023/01/24 11:53:42;;;;;;;21.60;9.93;;;2.00;99.90;;;;;;5062975;28;20728;-36
2023/01/24 11:56:46;;;;;;;19.95;10.38;;;2.00;99.90;;;;;;5065581;28;20477;-38
2023/01/24 11:59:40;;;;;;;19.10;9.05;;;2.00;99.90;;;;;;5066967;28;20039;-39
2023/01/24 12:02:43;;;;;;;17.80;9.20;;;2.10;99.90;;;;;;5073727;28;20028;-40
2023/01/24 12:05:29;;;;;;;21.77;10.02;;;2.10;99.90;;;;;;5063058;28;20032;-41
2023/01/24 12:08:11;;;;;;;19.85;9.35;;;2.10;99.90;;;;;;5077907;28;20529;-41
2023/01/24 12:11:10;;;;;;;22.17;9.55;;;2.10;99.90;;;;;;5090714;28;20020;-41
2023/01/24 12:13:55;;;;;;;15.13;7.38;;;2.10;99.90;;;;;;5083643;28;20044;-39
2023/01/24 12:16:42;;;;;;;19.83;9.10;;;2.20;99.90;;;;;;5079096;28;20093;-39
2023/01/24 12:19:47;;;;;;;19.27;9.75;;;2.20;99.90;;;;;;5081769;28;20035;-41
2023/01/24 12:22:17;;;;;;;20.50;9.60;;;2.20;99.90;;;;;;5087995;28;20030;-36
2023/01/24 12:24:51;;;;;;;13.85;7.85;;;2.30;99.90;;;;;;5063282;28;20024;-41
2023/01/24 12:27:21;;;;;;;19.45;8.85;;;2.30;99.90;;;;;;5078521;28;20024;-34
2023/01/24 12:30:19;;;;;;;16.30;8.73;;;2.30;99.90;;;;;;5076866;28;20545;-40
2023/01/24 12:32:51;;;;;;;17.95;8.25;;;2.30;99.90;;;;;;5037364;28;20060;-42
2023/01/24 12:35:28;;;;;;;19.85;9.75;;;2.30;99.90;;;;;;5079103;28;20029;-40
2023/01/24 12:38:02;;;;;;;15.85;7.63;;;2.40;99.90;;;;;;5084608;28;20020;-40
2023/01/24 12:40:44;;;;;;;9.35;5.97;;;2.40;99.90;;;;;;5080063;28;20022;-34
2023/01/24 12:43:28;;;;;;;12.93;6.75;;;2.40;99.90;;;;;;5082222;28;20030;-40
2023/01/24 12:46:14;;;;;;;13.70;8.25;;;2.40;99.90;;;;;;5079694;28;20447;-41
2023/01/24 12:48:47;;;;;;;12.15;6.68;;;2.40;99.90;;;;;;5083719;28;20027;-38
2023/01/24 12:51:23;;;;;;;14.60;8.13;;;2.40;99.90;;;;;;5075490;28;20056;-41
2023/01/24 12:53:52;;;;;;;18.38;9.55;;;2.40;99.90;;;;;;5082748;28;20032;-40
2023/01/24 12:56:23;;;;;;;15.73;8.38;;;2.40;99.90;;;;;;5080274;28;20059;-40
2023/01/24 12:58:51;;;;;;;13.88;7.35;;;2.40;99.90;;;;;;5079917;28;20481;-41
2023/01/24 13:01:44;;;;;;;15.20;7.68;;;2.50;99.90;;;;;;5076596;28;20032;-38
2023/01/24 13:04:10;;;;;;;16.35;8.82;;;2.50;99.90;;;;;;5084174;28;20028;-39
2023/01/24 13:06:35;;;;;;;17.10;8.30;;;2.50;99.90;;;;;;5081577;28;20315;-41
2023/01/24 13:09:09;;;;;;;16.58;8.30;;;2.50;99.90;;;;;;5080433;28;20079;-39
2023/01/24 13:11:45;;;;;;;10.27;6.57;;;2.50;99.90;;;;;;5081075;28;20424;-36
2023/01/24 13:14:41;;;;;;;13.65;7.25;;;2.50;99.90;;;;;;5079389;28;20894;-39
2023/01/24 13:17:16;;;;;;;13.55;7.88;;;2.50;99.90;;;;;;5078437;28;20421;-39
2023/01/24 13:20:06;;;;;;;17.40;8.90;;;2.60;99.90;;;;;;5078663;28;20514;-38
2023/01/24 13:22:40;;;;;;;14.88;7.78;;;2.60;99.90;;;;;;5086664;28;20488;-41
2023/01/24 13:25:18;;;;;;;17.00;8.30;;;2.60;99.90;;;;;;5079503;28;20024;-40
2023/01/24 13:28:13;;;;;;;17.42;8.20;;;2.60;99.90;;;;;;5085488;28;20022;-41
2023/01/24 13:30:47;;;;;;;12.40;7.45;;;2.60;99.90;;;;;;5071094;28;20125;-39
2023/01/24 13:33:23;;;;;;;14.55;7.90;;;2.60;99.90;;;;;;5059696;28;20419;-42